sensor_id;sensor_type;location;lat;lon;timestamp;temperature;humidity
11824;DHT22;5969;50.780;7.726;2023-07-31T00:01:38;16.60;99.90
11824;DHT22;5969;50.780;7.726;2023-07-31T00:04:05;16.50;99.90
11824;DHT22;5969;50.780;7.726;2023-07-31T00:06:33;16.50;99.90
11824;DHT22;5969;50.780;7.726;2023-07-31T00:09:00;16.50;99.90
11824;DHT22;5969;50.780;7.726;2023-07-31T00:11:26;16.40;99.90
11824;DHT22;5969;50.780;7.726;2023-07-31T00:13:53;16.50;99.90
11824;DHT22;5969;50.780;7.726;2023-07-31T00:16:20;16.50;99.90
11824;DHT22;5969;50.780;7.726;2023-07-31T00:18:47;16.50;99.90
11824;DHT22;5969;50.780;7.726;2023-07-31T00:21:14;16.60;99.90
11824;DHT22;5969;50.780;7.726;2023-07-31T00:23:42;16.60;99.90
11824;DHT22;5969;50.780;7.726;2023-07-31T00:26:08;16.70;99.90
11824;DHT22;5969;50.780;7.726;2023-07-31T00:28:35;16.60;99.90
11824;DHT22;5969;50.780;7.726;2023-07-31T00:31:02;16.70;99.90
11824;DHT22;5969;50.780;7.726;2023-07-31T00:33:30;16.70;99.90
11824;DHT22;5969;50.780;7.726;2023-07-31T00:35:57;16.70;99.90
11824;DHT22;5969;50.780;7.726;2023-07-31T00:38:24;16.70;99.90
11824;DHT22;5969;50.780;7.726;2023-07-31T00:40:52;16.70;99.90
11824;DHT22;5969;50.780;7.726;2023-07-31T00:43:19;16.70;99.90
11824;DHT22;5969;50.780;7.726;2023-07-31T00:45:46;16.70;99.90
11824;DHT22;5969;50.780;7.726;2023-07-31T00:48:12;16.80;99.90
11824;DHT22;5969;50.780;7.726;2023-07-31T00:50:39;16.80;99.90
11824;DHT22;5969;50.780;7.726;2023-07-31T00:53:06;16.70;99.90
11824;DHT22;5969;50.780;7.726;2023-07-31T00:55:33;16.80;99.90
11824;DHT22;5969;50.780;7.726;2023-07-31T00:58:01;16.80;99.90
11824;DHT22;5969;50.780;7.726;2023-07-31T01:00:28;16.70;99.90
11824;DHT22;5969;50.780;7.726;2023-07-31T01:02:55;16.70;99.90
11824;DHT22;5969;50.780;7.726;2023-07-31T01:05:31;16.70;99.90
11824;DHT22;5969;50.780;7.726;2023-07-31T01:08:06;16.70;99.90
11824;DHT22;5969;50.780;7.726;2023-07-31T01:10:41;16.80;99.90
11824;DHT22;5969;50.780;7.726;2023-07-31T01:13:15;16.80;99.90
11824;DHT22;5969;50.780;7.726;2023-07-31T01:15:41;16.80;99.90
11824;DHT22;5969;50.780;7.726;2023-07-31T01:18:08;16.80;99.90
11824;DHT22;5969;50.780;7.726;2023-07-31T01:20:36;16.80;99.90
11824;DHT22;5969;50.780;7.726;2023-07-31T01:23:33;16.80;99.90
11824;DHT22;5969;50.780;7.726;2023-07-31T01:26:07;16.80;99.90
11824;DHT22;5969;50.780;7.726;2023-07-31T01:28:43;16.80;99.90
11824;DHT22;5969;50.780;7.726;2023-07-31T01:31:17;16.80;99.90
11824;DHT22;5969;50.780;7.726;2023-07-31T01:33:45;16.80;99.90
11824;DHT22;5969;50.780;7.726;2023-07-31T01:36:12;16.80;99.90
11824;DHT22;5969;50.780;7.726;2023-07-31T01:38:39;16.80;99.90
11824;DHT22;5969;50.780;7.726;2023-07-31T01:41:09;16.80;99.90
11824;DHT22;5969;50.780;7.726;2023-07-31T01:43:35;16.80;99.90
11824;DHT22;5969;50.780;7.726;2023-07-31T01:46:02;16.80;99.90
11824;DHT22;5969;50.780;7.726;2023-07-31T01:48:29;16.70;99.90
11824;DHT22;5969;50.780;7.726;2023-07-31T01:51:01;16.70;99.90
11824;DHT22;5969;50.780;7.726;2023-07-31T01:53:28;16.60;99.90
11824;DHT22;5969;50.780;7.726;2023-07-31T01:55:55;16.40;99.90
11824;DHT22;5969;50.780;7.726;2023-07-31T01:58:24;16.20;99.90
11824;DHT22;5969;50.780;7.726;2023-07-31T02:00:50;16.00;99.90
11824;DHT22;5969;50.780;7.726;2023-07-31T02:03:17;15.90;99.90
11824;DHT22;5969;50.780;7.726;2023-07-31T02:05:44;15.80;99.90
11824;DHT22;5969;50.780;7.726;2023-07-31T02:08:11;15.70;99.90
11824;DHT22;5969;50.780;7.726;2023-07-31T02:10:38;15.70;99.90
11824;DHT22;5969;50.780;7.726;2023-07-31T02:13:05;15.60;99.90
11824;DHT22;5969;50.780;7.726;2023-07-31T02:15:33;15.50;99.90
11824;DHT22;5969;50.780;7.726;2023-07-31T02:18:00;15.40;99.90
11824;DHT22;5969;50.780;7.726;2023-07-31T02:20:27;15.40;99.90
11824;DHT22;5969;50.780;7.726;2023-07-31T02:22:54;15.30;99.90
11824;DHT22;5969;50.780;7.726;2023-07-31T02:25:21;15.30;99.90
11824;DHT22;5969;50.780;7.726;2023-07-31T02:27:47;15.20;99.90
11824;DHT22;5969;50.780;7.726;2023-07-31T02:30:14;15.20;99.90
11824;DHT22;5969;50.780;7.726;2023-07-31T02:32:42;15.20;99.90
11824;DHT22;5969;50.780;7.726;2023-07-31T02:35:09;15.20;99.90
11824;DHT22;5969;50.780;7.726;2023-07-31T02:37:41;15.20;99.90
11824;DHT22;5969;50.780;7.726;2023-07-31T02:40:09;15.30;99.90
11824;DHT22;5969;50.780;7.726;2023-07-31T02:42:36;15.30;99.90
11824;DHT22;5969;50.780;7.726;2023-07-31T02:45:03;15.40;99.90
11824;DHT22;5969;50.780;7.726;2023-07-31T02:47:30;15.30;99.90
11824;DHT22;5969;50.780;7.726;2023-07-31T02:49:58;15.40;99.90
11824;DHT22;5969;50.780;7.726;2023-07-31T02:52:25;15.40;99.90
11824;DHT22;5969;50.780;7.726;2023-07-31T02:54:52;15.40;99.90
11824;DHT22;5969;50.780;7.726;2023-07-31T02:57:19;15.50;99.90
11824;DHT22;5969;50.780;7.726;2023-07-31T02:59:45;15.50;99.90
11824;DHT22;5969;50.780;7.726;2023-07-31T03:02:12;15.60;99.90
11824;DHT22;5969;50.780;7.726;2023-07-31T03:04:39;15.60;99.90
11824;DHT22;5969;50.780;7.726;2023-07-31T03:07:08;15.60;99.90
11824;DHT22;5969;50.780;7.726;2023-07-31T03:09:34;15.60;99.90
11824;DHT22;5969;50.780;7.726;2023-07-31T03:12:01;15.60;99.90
11824;DHT22;5969;50.780;7.726;2023-07-31T03:14:28;15.70;99.90
11824;DHT22;5969;50.780;7.726;2023-07-31T03:16:55;15.70;99.90
11824;DHT22;5969;50.780;7.726;2023-07-31T03:19:22;15.70;99.90
11824;DHT22;5969;50.780;7.726;2023-07-31T03:21:49;15.70;99.90
11824;DHT22;5969;50.780;7.726;2023-07-31T03:24:17;15.80;99.90
11824;DHT22;5969;50.780;7.726;2023-07-31T03:26:44;15.70;99.90
11824;DHT22;5969;50.780;7.726;2023-07-31T03:29:11;15.80;99.90
11824;DHT22;5969;50.780;7.726;2023-07-31T03:31:37;15.80;99.90
11824;DHT22;5969;50.780;7.726;2023-07-31T03:34:04;15.80;99.90
11824;DHT22;5969;50.780;7.726;2023-07-31T03:36:31;15.80;99.90
11824;DHT22;5969;50.780;7.726;2023-07-31T03:38:58;15.90;99.90
11824;DHT22;5969;50.780;7.726;2023-07-31T03:41:26;16.00;99.90
11824;DHT22;5969;50.780;7.726;2023-07-31T03:43:53;15.90;99.90
11824;DHT22;5969;50.780;7.726;2023-07-31T03:46:21;15.90;99.90
11824;DHT22;5969;50.780;7.726;2023-07-31T03:48:48;15.90;99.90
11824;DHT22;5969;50.780;7.726;2023-07-31T03:51:16;15.90;99.90
11824;DHT22;5969;50.780;7.726;2023-07-31T03:53:44;15.90;99.90
11824;DHT22;5969;50.780;7.726;2023-07-31T03:56:11;16.00;99.90
11824;DHT22;5969;50.780;7.726;2023-07-31T03:58:39;16.00;99.90
11824;DHT22;5969;50.780;7.726;2023-07-31T04:01:06;16.00;99.90
11824;DHT22;5969;50.780;7.726;2023-07-31T04:03:33;16.00;99.90
11824;DHT22;5969;50.780;7.726;2023-07-31T04:06:00;16.00;99.90
11824;DHT22;5969;50.780;7.726;2023-07-31T04:08:26;16.10;99.90
11824;DHT22;5969;50.780;7.726;2023-07-31T04:10:53;16.10;99.90
11824;DHT22;5969;50.780;7.726;2023-07-31T04:13:21;16.10;99.90
11824;DHT22;5969;50.780;7.726;2023-07-31T04:15:50;16.10;99.90
11824;DHT22;5969;50.780;7.726;2023-07-31T04:18:17;16.10;99.90
11824;DHT22;5969;50.780;7.726;2023-07-31T04:20:44;16.10;99.90
11824;DHT22;5969;50.780;7.726;2023-07-31T04:23:11;16.20;99.90
11824;DHT22;5969;50.780;7.726;2023-07-31T04:25:38;16.20;99.90
11824;DHT22;5969;50.780;7.726;2023-07-31T04:28:04;16.20;99.90
11824;DHT22;5969;50.780;7.726;2023-07-31T04:30:31;16.20;99.90
11824;DHT22;5969;50.780;7.726;2023-07-31T04:32:59;16.20;99.90
11824;DHT22;5969;50.780;7.726;2023-07-31T04:35:26;16.20;99.90
11824;DHT22;5969;50.780;7.726;2023-07-31T04:37:53;16.20;99.90
11824;DHT22;5969;50.780;7.726;2023-07-31T04:40:21;16.20;99.90
11824;DHT22;5969;50.780;7.726;2023-07-31T04:42:47;16.20;99.90
11824;DHT22;5969;50.780;7.726;2023-07-31T04:45:14;16.20;99.90
11824;DHT22;5969;50.780;7.726;2023-07-31T04:47:44;16.30;99.90
11824;DHT22;5969;50.780;7.726;2023-07-31T04:50:13;16.40;99.90
11824;DHT22;5969;50.780;7.726;2023-07-31T04:52:40;16.50;99.90
11824;DHT22;5969;50.780;7.726;2023-07-31T04:55:07;16.40;99.90
11824;DHT22;5969;50.780;7.726;2023-07-31T04:57:34;16.40;99.90
11824;DHT22;5969;50.780;7.726;2023-07-31T05:00:01;16.40;99.90
11824;DHT22;5969;50.780;7.726;2023-07-31T05:02:28;16.40;99.90
11824;DHT22;5969;50.780;7.726;2023-07-31T05:04:55;16.40;99.90
11824;DHT22;5969;50.780;7.726;2023-07-31T05:07:23;16.50;99.90
11824;DHT22;5969;50.780;7.726;2023-07-31T05:09:50;16.40;99.90
11824;DHT22;5969;50.780;7.726;2023-07-31T05:12:17;16.50;99.90
11824;DHT22;5969;50.780;7.726;2023-07-31T05:14:44;16.50;99.90
11824;DHT22;5969;50.780;7.726;2023-07-31T05:17:11;16.60;99.90
11824;DHT22;5969;50.780;7.726;2023-07-31T05:19:38;16.60;99.90
11824;DHT22;5969;50.780;7.726;2023-07-31T05:22:05;16.60;99.90
11824;DHT22;5969;50.780;7.726;2023-07-31T05:24:34;16.60;99.90
11824;DHT22;5969;50.780;7.726;2023-07-31T05:27:02;16.60;99.90
11824;DHT22;5969;50.780;7.726;2023-07-31T05:29:29;16.60;99.90
11824;DHT22;5969;50.780;7.726;2023-07-31T05:31:56;16.50;99.90
11824;DHT22;5969;50.780;7.726;2023-07-31T05:34:26;16.50;99.90
11824;DHT22;5969;50.780;7.726;2023-07-31T05:36:53;16.50;99.90
11824;DHT22;5969;50.780;7.726;2023-07-31T05:39:20;16.50;99.90
11824;DHT22;5969;50.780;7.726;2023-07-31T05:41:48;16.60;99.90
11824;DHT22;5969;50.780;7.726;2023-07-31T05:44:15;16.60;99.90
11824;DHT22;5969;50.780;7.726;2023-07-31T05:46:42;16.70;99.90
11824;DHT22;5969;50.780;7.726;2023-07-31T05:49:09;16.70;99.90
11824;DHT22;5969;50.780;7.726;2023-07-31T05:51:36;16.80;99.90
11824;DHT22;5969;50.780;7.726;2023-07-31T05:54:03;16.80;99.90
11824;DHT22;5969;50.780;7.726;2023-07-31T05:56:30;16.90;99.90
11824;DHT22;5969;50.780;7.726;2023-07-31T05:59:01;16.80;99.90
11824;DHT22;5969;50.780;7.726;2023-07-31T06:01:28;16.90;99.90
11824;DHT22;5969;50.780;7.726;2023-07-31T06:03:55;16.80;99.90
11824;DHT22;5969;50.780;7.726;2023-07-31T06:06:22;16.70;99.90
11824;DHT22;5969;50.780;7.726;2023-07-31T06:08:48;16.70;99.90
11824;DHT22;5969;50.780;7.726;2023-07-31T06:11:16;16.70;99.90
11824;DHT22;5969;50.780;7.726;2023-07-31T06:13:43;16.80;99.90
11824;DHT22;5969;50.780;7.726;2023-07-31T06:16:11;16.80;99.90
11824;DHT22;5969;50.780;7.726;2023-07-31T06:18:38;16.90;99.90
11824;DHT22;5969;50.780;7.726;2023-07-31T06:21:05;16.90;99.90
11824;DHT22;5969;50.780;7.726;2023-07-31T06:23:32;16.80;99.90
11824;DHT22;5969;50.780;7.726;2023-07-31T06:25:59;17.00;99.90
11824;DHT22;5969;50.780;7.726;2023-07-31T06:28:27;17.00;99.90
11824;DHT22;5969;50.780;7.726;2023-07-31T06:30:55;17.00;99.90
11824;DHT22;5969;50.780;7.726;2023-07-31T06:33:24;17.00;99.90
11824;DHT22;5969;50.780;7.726;2023-07-31T06:35:51;17.00;99.90
11824;DHT22;5969;50.780;7.726;2023-07-31T06:38:21;17.00;99.90
11824;DHT22;5969;50.780;7.726;2023-07-31T06:40:48;17.10;99.90
11824;DHT22;5969;50.780;7.726;2023-07-31T06:43:15;17.10;99.90
11824;DHT22;5969;50.780;7.726;2023-07-31T06:45:42;17.00;99.90
11824;DHT22;5969;50.780;7.726;2023-07-31T06:48:09;17.00;99.90
11824;DHT22;5969;50.780;7.726;2023-07-31T06:50:38;17.00;99.90
11824;DHT22;5969;50.780;7.726;2023-07-31T06:53:05;16.90;99.90
11824;DHT22;5969;50.780;7.726;2023-07-31T06:55:32;16.80;99.90
11824;DHT22;5969;50.780;7.726;2023-07-31T06:57:59;16.80;99.90
11824;DHT22;5969;50.780;7.726;2023-07-31T07:00:26;16.80;99.90
11824;DHT22;5969;50.780;7.726;2023-07-31T07:02:54;16.70;99.90
11824;DHT22;5969;50.780;7.726;2023-07-31T07:05:21;16.60;99.90
11824;DHT22;5969;50.780;7.726;2023-07-31T07:07:50;16.70;99.90
11824;DHT22;5969;50.780;7.726;2023-07-31T07:10:17;16.70;99.90
11824;DHT22;5969;50.780;7.726;2023-07-31T07:12:45;16.70;99.90
11824;DHT22;5969;50.780;7.726;2023-07-31T07:15:13;16.70;99.90
11824;DHT22;5969;50.780;7.726;2023-07-31T07:17:55;16.60;99.90
11824;DHT22;5969;50.780;7.726;2023-07-31T07:20:22;16.60;99.90
11824;DHT22;5969;50.780;7.726;2023-07-31T07:22:51;16.70;99.90
11824;DHT22;5969;50.780;7.726;2023-07-31T07:25:18;16.80;99.90
11824;DHT22;5969;50.780;7.726;2023-07-31T07:27:45;16.70;99.90
11824;DHT22;5969;50.780;7.726;2023-07-31T07:30:11;16.80;99.90
11824;DHT22;5969;50.780;7.726;2023-07-31T07:32:39;16.90;99.90
11824;DHT22;5969;50.780;7.726;2023-07-31T07:35:07;17.00;99.90
11824;DHT22;5969;50.780;7.726;2023-07-31T07:37:34;17.00;99.90
11824;DHT22;5969;50.780;7.726;2023-07-31T07:40:02;17.10;99.90
11824;DHT22;5969;50.780;7.726;2023-07-31T07:42:29;17.20;99.90
11824;DHT22;5969;50.780;7.726;2023-07-31T07:44:56;17.30;99.90
11824;DHT22;5969;50.780;7.726;2023-07-31T07:47:23;17.30;99.90
11824;DHT22;5969;50.780;7.726;2023-07-31T07:49:50;17.40;99.90
11824;DHT22;5969;50.780;7.726;2023-07-31T07:52:17;17.60;99.90
11824;DHT22;5969;50.780;7.726;2023-07-31T07:54:43;17.70;99.90
11824;DHT22;5969;50.780;7.726;2023-07-31T07:57:12;17.90;99.90
11824;DHT22;5969;50.780;7.726;2023-07-31T07:59:39;18.10;99.90
11824;DHT22;5969;50.780;7.726;2023-07-31T08:02:05;18.20;99.90
11824;DHT22;5969;50.780;7.726;2023-07-31T08:04:32;18.20;99.90
11824;DHT22;5969;50.780;7.726;2023-07-31T08:06:59;18.20;99.90
11824;DHT22;5969;50.780;7.726;2023-07-31T08:09:26;18.30;99.90
11824;DHT22;5969;50.780;7.726;2023-07-31T08:11:53;18.30;99.90
11824;DHT22;5969;50.780;7.726;2023-07-31T08:14:22;18.20;99.90
11824;DHT22;5969;50.780;7.726;2023-07-31T08:16:49;18.20;99.90
11824;DHT22;5969;50.780;7.726;2023-07-31T08:19:16;18.10;99.90
11824;DHT22;5969;50.780;7.726;2023-07-31T08:21:43;18.00;99.90
11824;DHT22;5969;50.780;7.726;2023-07-31T08:24:10;17.90;99.90
11824;DHT22;5969;50.780;7.726;2023-07-31T08:26:37;17.80;99.90
11824;DHT22;5969;50.780;7.726;2023-07-31T08:29:04;17.80;99.90
11824;DHT22;5969;50.780;7.726;2023-07-31T08:31:32;17.70;99.90
11824;DHT22;5969;50.780;7.726;2023-07-31T08:34:00;17.50;99.90
11824;DHT22;5969;50.780;7.726;2023-07-31T08:36:27;17.50;99.90
11824;DHT22;5969;50.780;7.726;2023-07-31T08:38:54;17.30;99.90
11824;DHT22;5969;50.780;7.726;2023-07-31T08:41:21;17.20;99.90
11824;DHT22;5969;50.780;7.726;2023-07-31T08:43:49;17.10;99.90
11824;DHT22;5969;50.780;7.726;2023-07-31T08:46:16;17.00;99.90
11824;DHT22;5969;50.780;7.726;2023-07-31T08:48:44;17.00;99.90
11824;DHT22;5969;50.780;7.726;2023-07-31T08:51:14;17.00;99.90
11824;DHT22;5969;50.780;7.726;2023-07-31T08:53:41;17.00;99.90
11824;DHT22;5969;50.780;7.726;2023-07-31T08:56:08;17.00;99.90
11824;DHT22;5969;50.780;7.726;2023-07-31T08:58:36;16.90;99.90
11824;DHT22;5969;50.780;7.726;2023-07-31T09:01:04;16.80;99.90
11824;DHT22;5969;50.780;7.726;2023-07-31T09:03:34;16.90;99.90
11824;DHT22;5969;50.780;7.726;2023-07-31T09:06:03;16.90;99.90
11824;DHT22;5969;50.780;7.726;2023-07-31T09:08:32;17.00;99.90
11824;DHT22;5969;50.780;7.726;2023-07-31T09:11:01;17.00;99.90
11824;DHT22;5969;50.780;7.726;2023-07-31T09:13:31;17.00;99.90
11824;DHT22;5969;50.780;7.726;2023-07-31T09:15:58;17.00;99.90
11824;DHT22;5969;50.780;7.726;2023-07-31T09:18:25;16.90;99.90
11824;DHT22;5969;50.780;7.726;2023-07-31T09:21:03;16.90;99.90
11824;DHT22;5969;50.780;7.726;2023-07-31T09:23:44;16.90;99.90
11824;DHT22;5969;50.780;7.726;2023-07-31T09:26:11;16.90;99.90
11824;DHT22;5969;50.780;7.726;2023-07-31T09:28:40;16.90;99.90
11824;DHT22;5969;50.780;7.726;2023-07-31T09:31:07;17.00;99.90
11824;DHT22;5969;50.780;7.726;2023-07-31T09:33:54;17.10;99.90
11824;DHT22;5969;50.780;7.726;2023-07-31T09:36:22;17.10;99.90
11824;DHT22;5969;50.780;7.726;2023-07-31T09:38:49;17.10;99.90
11824;DHT22;5969;50.780;7.726;2023-07-31T09:41:16;17.10;99.90
11824;DHT22;5969;50.780;7.726;2023-07-31T09:43:53;17.10;99.90
11824;DHT22;5969;50.780;7.726;2023-07-31T09:46:20;17.20;99.90
11824;DHT22;5969;50.780;7.726;2023-07-31T09:48:48;17.00;99.90
11824;DHT22;5969;50.780;7.726;2023-07-31T09:51:15;17.10;99.90
11824;DHT22;5969;50.780;7.726;2023-07-31T09:53:50;17.10;99.90
11824;DHT22;5969;50.780;7.726;2023-07-31T09:56:17;17.30;99.90
11824;DHT22;5969;50.780;7.726;2023-07-31T09:58:44;17.30;99.90
11824;DHT22;5969;50.780;7.726;2023-07-31T10:01:12;17.40;99.90
11824;DHT22;5969;50.780;7.726;2023-07-31T10:03:39;17.60;99.90
11824;DHT22;5969;50.780;7.726;2023-07-31T10:06:08;17.50;99.90
11824;DHT22;5969;50.780;7.726;2023-07-31T10:08:36;17.50;99.90
11824;DHT22;5969;50.780;7.726;2023-07-31T10:11:06;17.70;99.90
11824;DHT22;5969;50.780;7.726;2023-07-31T10:13:36;17.70;99.90
11824;DHT22;5969;50.780;7.726;2023-07-31T10:16:03;17.70;99.90
11824;DHT22;5969;50.780;7.726;2023-07-31T10:18:31;17.70;99.90
11824;DHT22;5969;50.780;7.726;2023-07-31T10:20:58;17.60;99.90
11824;DHT22;5969;50.780;7.726;2023-07-31T10:23:25;17.80;99.90
11824;DHT22;5969;50.780;7.726;2023-07-31T10:25:53;17.90;99.90
11824;DHT22;5969;50.780;7.726;2023-07-31T10:28:22;17.90;99.90
11824;DHT22;5969;50.780;7.726;2023-07-31T10:31:11;17.70;99.90
11824;DHT22;5969;50.780;7.726;2023-07-31T10:33:42;17.60;99.90
11824;DHT22;5969;50.780;7.726;2023-07-31T10:36:17;17.40;99.90
11824;DHT22;5969;50.780;7.726;2023-07-31T10:38:44;17.60;99.90
11824;DHT22;5969;50.780;7.726;2023-07-31T10:41:11;17.60;99.90
11824;DHT22;5969;50.780;7.726;2023-07-31T10:43:43;17.60;99.90
11824;DHT22;5969;50.780;7.726;2023-07-31T10:46:13;17.60;99.90
11824;DHT22;5969;50.780;7.726;2023-07-31T10:48:41;17.60;99.90
11824;DHT22;5969;50.780;7.726;2023-07-31T10:51:10;17.60;99.90
11824;DHT22;5969;50.780;7.726;2023-07-31T10:53:38;17.60;99.90
11824;DHT22;5969;50.780;7.726;2023-07-31T10:56:06;17.50;99.90
11824;DHT22;5969;50.780;7.726;2023-07-31T10:58:33;17.60;99.90
11824;DHT22;5969;50.780;7.726;2023-07-31T11:01:03;17.70;99.90
11824;DHT22;5969;50.780;7.726;2023-07-31T11:03:45;17.70;99.90
11824;DHT22;5969;50.780;7.726;2023-07-31T11:06:13;17.70;99.90
11824;DHT22;5969;50.780;7.726;2023-07-31T11:08:44;17.70;99.90
11824;DHT22;5969;50.780;7.726;2023-07-31T11:11:12;17.70;99.90
11824;DHT22;5969;50.780;7.726;2023-07-31T11:13:41;17.70;99.90
11824;DHT22;5969;50.780;7.726;2023-07-31T11:16:10;17.70;99.90
11824;DHT22;5969;50.780;7.726;2023-07-31T11:18:39;17.80;99.90
11824;DHT22;5969;50.780;7.726;2023-07-31T11:21:06;18.00;99.90
11824;DHT22;5969;50.780;7.726;2023-07-31T11:23:33;18.00;99.90
11824;DHT22;5969;50.780;7.726;2023-07-31T11:26:04;18.10;99.90
11824;DHT22;5969;50.780;7.726;2023-07-31T11:28:32;18.20;99.90
11824;DHT22;5969;50.780;7.726;2023-07-31T11:31:00;18.20;99.90
11824;DHT22;5969;50.780;7.726;2023-07-31T11:33:29;18.20;99.90
11824;DHT22;5969;50.780;7.726;2023-07-31T11:35:56;18.30;99.90
11824;DHT22;5969;50.780;7.726;2023-07-31T11:38:23;18.20;99.90
11824;DHT22;5969;50.780;7.726;2023-07-31T11:40:52;18.30;99.90
11824;DHT22;5969;50.780;7.726;2023-07-31T11:43:19;18.30;99.90
11824;DHT22;5969;50.780;7.726;2023-07-31T11:45:47;18.50;99.90
11824;DHT22;5969;50.780;7.726;2023-07-31T11:48:21;18.40;99.90
11824;DHT22;5969;50.780;7.726;2023-07-31T11:50:51;18.50;99.90
11824;DHT22;5969;50.780;7.726;2023-07-31T11:53:21;18.50;99.90
11824;DHT22;5969;50.780;7.726;2023-07-31T11:55:49;18.50;99.90
11824;DHT22;5969;50.780;7.726;2023-07-31T11:58:17;18.60;99.90
11824;DHT22;5969;50.780;7.726;2023-07-31T12:00:44;18.80;99.90
11824;DHT22;5969;50.780;7.726;2023-07-31T12:03:12;18.80;99.90
11824;DHT22;5969;50.780;7.726;2023-07-31T12:05:39;18.90;99.90
11824;DHT22;5969;50.780;7.726;2023-07-31T12:08:11;19.00;99.90
11824;DHT22;5969;50.780;7.726;2023-07-31T12:10:38;19.00;99.90
11824;DHT22;5969;50.780;7.726;2023-07-31T12:13:09;19.00;99.90
11824;DHT22;5969;50.780;7.726;2023-07-31T12:15:40;19.10;99.90
11824;DHT22;5969;50.780;7.726;2023-07-31T12:18:09;19.30;99.90
11824;DHT22;5969;50.780;7.726;2023-07-31T12:20:40;19.20;99.90
11824;DHT22;5969;50.780;7.726;2023-07-31T12:23:07;19.20;99.90
11824;DHT22;5969;50.780;7.726;2023-07-31T12:25:41;19.20;99.90
11824;DHT22;5969;50.780;7.726;2023-07-31T12:28:08;19.40;99.90
11824;DHT22;5969;50.780;7.726;2023-07-31T12:30:38;19.20;99.90
11824;DHT22;5969;50.780;7.726;2023-07-31T12:33:06;19.00;99.90
11824;DHT22;5969;50.780;7.726;2023-07-31T12:35:37;18.70;99.90
11824;DHT22;5969;50.780;7.726;2023-07-31T12:38:04;18.50;99.90
11824;DHT22;5969;50.780;7.726;2023-07-31T12:40:31;18.30;99.90
11824;DHT22;5969;50.780;7.726;2023-07-31T12:43:02;18.60;99.90
11824;DHT22;5969;50.780;7.726;2023-07-31T12:45:30;18.80;99.90
11824;DHT22;5969;50.780;7.726;2023-07-31T12:47:57;19.10;99.90
11824;DHT22;5969;50.780;7.726;2023-07-31T12:50:24;20.10;99.90
11824;DHT22;5969;50.780;7.726;2023-07-31T12:52:51;21.00;99.90
11824;DHT22;5969;50.780;7.726;2023-07-31T12:55:18;21.10;99.90
11824;DHT22;5969;50.780;7.726;2023-07-31T12:57:45;21.10;99.90
11824;DHT22;5969;50.780;7.726;2023-07-31T13:00:14;21.00;99.90
11824;DHT22;5969;50.780;7.726;2023-07-31T13:02:41;20.60;99.90
11824;DHT22;5969;50.780;7.726;2023-07-31T13:05:08;20.30;99.90
11824;DHT22;5969;50.780;7.726;2023-07-31T13:07:35;20.30;99.90
11824;DHT22;5969;50.780;7.726;2023-07-31T13:10:02;20.10;99.90
11824;DHT22;5969;50.780;7.726;2023-07-31T13:12:28;19.80;99.90
11824;DHT22;5969;50.780;7.726;2023-07-31T13:14:55;19.80;99.90
11824;DHT22;5969;50.780;7.726;2023-07-31T13:17:23;19.70;99.90
11824;DHT22;5969;50.780;7.726;2023-07-31T13:19:50;19.50;99.90
11824;DHT22;5969;50.780;7.726;2023-07-31T13:22:17;19.40;99.90
11824;DHT22;5969;50.780;7.726;2023-07-31T13:24:44;19.40;99.90
11824;DHT22;5969;50.780;7.726;2023-07-31T13:27:11;19.30;99.90
11824;DHT22;5969;50.780;7.726;2023-07-31T13:29:37;19.40;99.90
11824;DHT22;5969;50.780;7.726;2023-07-31T13:32:05;19.30;99.90
11824;DHT22;5969;50.780;7.726;2023-07-31T13:34:33;19.20;99.90
11824;DHT22;5969;50.780;7.726;2023-07-31T13:37:01;19.20;99.90
11824;DHT22;5969;50.780;7.726;2023-07-31T13:39:28;19.20;99.90
11824;DHT22;5969;50.780;7.726;2023-07-31T13:41:54;19.20;99.90
11824;DHT22;5969;50.780;7.726;2023-07-31T13:44:21;19.20;99.90
11824;DHT22;5969;50.780;7.726;2023-07-31T13:46:48;19.30;99.90
11824;DHT22;5969;50.780;7.726;2023-07-31T13:49:15;19.40;99.90
11824;DHT22;5969;50.780;7.726;2023-07-31T13:51:43;19.50;99.90
11824;DHT22;5969;50.780;7.726;2023-07-31T13:54:10;19.60;99.90
11824;DHT22;5969;50.780;7.726;2023-07-31T13:56:38;19.90;99.90
11824;DHT22;5969;50.780;7.726;2023-07-31T13:59:07;20.00;99.90
11824;DHT22;5969;50.780;7.726;2023-07-31T14:01:34;19.90;99.90
11824;DHT22;5969;50.780;7.726;2023-07-31T14:04:00;20.10;99.90
11824;DHT22;5969;50.780;7.726;2023-07-31T14:06:27;20.00;99.90
11824;DHT22;5969;50.780;7.726;2023-07-31T14:08:56;20.10;99.90
11824;DHT22;5969;50.780;7.726;2023-07-31T14:11:26;20.30;99.90
11824;DHT22;5969;50.780;7.726;2023-07-31T14:13:53;20.10;99.90
11824;DHT22;5969;50.780;7.726;2023-07-31T14:16:19;20.20;99.90
11824;DHT22;5969;50.780;7.726;2023-07-31T14:18:47;20.60;99.90
11824;DHT22;5969;50.780;7.726;2023-07-31T14:21:14;21.00;99.90
11824;DHT22;5969;50.780;7.726;2023-07-31T14:23:41;21.40;99.90
11824;DHT22;5969;50.780;7.726;2023-07-31T14:26:09;21.50;99.90
11824;DHT22;5969;50.780;7.726;2023-07-31T14:28:36;22.10;99.90
11824;DHT22;5969;50.780;7.726;2023-07-31T14:31:03;21.90;99.90
11824;DHT22;5969;50.780;7.726;2023-07-31T14:33:30;21.70;99.90
11824;DHT22;5969;50.780;7.726;2023-07-31T14:35:57;21.90;99.90
11824;DHT22;5969;50.780;7.726;2023-07-31T14:38:24;21.90;99.90
11824;DHT22;5969;50.780;7.726;2023-07-31T14:40:51;21.60;99.90
11824;DHT22;5969;50.780;7.726;2023-07-31T14:43:19;21.10;99.90
11824;DHT22;5969;50.780;7.726;2023-07-31T14:45:46;20.80;99.90
11824;DHT22;5969;50.780;7.726;2023-07-31T14:48:13;20.60;99.90
11824;DHT22;5969;50.780;7.726;2023-07-31T14:50:40;20.40;99.90
11824;DHT22;5969;50.780;7.726;2023-07-31T14:53:08;20.30;99.90
11824;DHT22;5969;50.780;7.726;2023-07-31T14:55:35;19.90;99.90
11824;DHT22;5969;50.780;7.726;2023-07-31T14:58:02;19.80;99.90
11824;DHT22;5969;50.780;7.726;2023-07-31T15:00:30;19.70;99.90
11824;DHT22;5969;50.780;7.726;2023-07-31T15:02:57;19.50;99.90
11824;DHT22;5969;50.780;7.726;2023-07-31T15:05:24;19.50;99.90
11824;DHT22;5969;50.780;7.726;2023-07-31T15:07:50;19.60;99.90
11824;DHT22;5969;50.780;7.726;2023-07-31T15:10:21;19.70;99.90
11824;DHT22;5969;50.780;7.726;2023-07-31T15:12:47;19.60;99.90
11824;DHT22;5969;50.780;7.726;2023-07-31T15:15:15;19.50;99.90
11824;DHT22;5969;50.780;7.726;2023-07-31T15:17:43;19.40;99.90
11824;DHT22;5969;50.780;7.726;2023-07-31T15:20:10;19.40;99.90
11824;DHT22;5969;50.780;7.726;2023-07-31T15:22:37;19.30;99.90
11824;DHT22;5969;50.780;7.726;2023-07-31T15:25:05;19.30;99.90
11824;DHT22;5969;50.780;7.726;2023-07-31T15:27:35;19.20;99.90
11824;DHT22;5969;50.780;7.726;2023-07-31T15:30:02;19.30;99.90
11824;DHT22;5969;50.780;7.726;2023-07-31T15:32:30;19.40;99.90
11824;DHT22;5969;50.780;7.726;2023-07-31T15:34:59;19.20;99.90
11824;DHT22;5969;50.780;7.726;2023-07-31T15:37:26;19.10;99.90
11824;DHT22;5969;50.780;7.726;2023-07-31T15:39:52;19.20;99.90
11824;DHT22;5969;50.780;7.726;2023-07-31T15:42:19;19.20;99.90
11824;DHT22;5969;50.780;7.726;2023-07-31T15:44:46;19.10;99.90
11824;DHT22;5969;50.780;7.726;2023-07-31T15:47:13;19.00;99.90
11824;DHT22;5969;50.780;7.726;2023-07-31T15:49:40;19.00;99.90